Aviation Digital Data Service (ADDS)

Output produced by METARs form (1435 UTC 12 December 2018)
found at http://www.aviationweather.gov/metar/data/
 
UBBB 121430Z 17012KT CAVOK 11/09 Q1009 R88/CLRD// NOSIG
TAF UBBB 121109Z 1212/1312 16012KT CAVOK TX13/1212Z TN07/1303Z 
     TEMPO 1214/1221 19018KT SCT012 
     BECMG 1221/1222 VRB04KT 3000 BR SCT100 
     TEMPO 1222/1301 BKN004 
     BECMG 1302/1304 32012KT 8000 NSW SCT012 BKN020 
     TEMPO 1306/1312 35018G28KT
       
UBBG 121430Z VRB02KT 9999 SCT100 08/06 Q1008 R30/CLRD// NOSIG
TAF UBBG 121100Z 1212/1312 VRB02KT 9999 SCT040 BKN100 TX13/1212Z TN06/1303Z 
     TEMPO 1212/1216 29008KT 
     BECMG 1300/1302 30012KT 
     TEMPO 1302/1308 VRB16KT -SHRA SCT030CB OVC060